地図

経路データ

SID SEASON NUMBER BASIN SUBBASIN NAME ISO_TIME NATURE LAT LON WMO_WIND WMO_PRES WMO_AGENCY TRACK_TYPE DIST2LAND LANDFALL IFLAG USA_AGENCY USA_ATCF_ID USA_LAT USA_LON USA_RECORD USA_STATUS USA_WIND USA_PRES USA_SSHS USA_R34_NE USA_R34_SE USA_R34_SW USA_R34_NW USA_R50_NE USA_R50_SE USA_R50_SW USA_R50_NW USA_R64_NE USA_R64_SE USA_R64_SW USA_R64_NW USA_POCI USA_ROCI USA_RMW USA_EYE TOKYO_LAT TOKYO_LON TOKYO_GRADE TOKYO_WIND TOKYO_PRES TOKYO_R50_DIR TOKYO_R50_LONG TOKYO_R50_SHORT TOKYO_R30_DIR TOKYO_R30_LONG TOKYO_R30_SHORT TOKYO_LAND CMA_LAT CMA_LON CMA_CAT CMA_WIND CMA_PRES HKO_LAT HKO_LON HKO_CAT HKO_WIND HKO_PRES NEWDELHI_LAT NEWDELHI_LON NEWDELHI_GRADE NEWDELHI_WIND NEWDELHI_PRES NEWDELHI_CI NEWDELHI_DP NEWDELHI_POCI REUNION_LAT REUNION_LON REUNION_TYPE REUNION_WIND REUNION_PRES REUNION_TNUM REUNION_CI REUNION_RMW REUNION_R34_NE REUNION_R34_SE REUNION_R34_SW REUNION_R34_NW REUNION_R50_NE REUNION_R50_SE REUNION_R50_SW REUNION_R50_NW REUNION_R64_NE REUNION_R64_SE REUNION_R64_SW REUNION_R64_NW BOM_LAT BOM_LON BOM_TYPE BOM_WIND BOM_PRES BOM_TNUM BOM_CI BOM_RMW BOM_R34_NE BOM_R34_SE BOM_R34_SW BOM_R34_NW BOM_R50_NE BOM_R50_SE BOM_R50_SW BOM_R50_NW BOM_R64_NE BOM_R64_SE BOM_R64_SW BOM_R64_NW BOM_ROCI BOM_POCI BOM_EYE BOM_POS_METHOD BOM_PRES_METHOD NADI_LAT NADI_LON NADI_CAT NADI_WIND NADI_PRES WELLINGTON_LAT WELLINGTON_LON WELLINGTON_WIND WELLINGTON_PRES DS824_LAT DS824_LON DS824_STAGE DS824_WIND DS824_PRES TD9636_LAT TD9636_LON TD9636_STAGE TD9636_WIND TD9636_PRES TD9635_LAT TD9635_LON TD9635_WIND TD9635_PRES TD9635_ROCI NEUMANN_LAT NEUMANN_LON NEUMANN_CLASS NEUMANN_WIND NEUMANN_PRES MLC_LAT MLC_LON MLC_CLASS MLC_WIND MLC_PRES USA_GUST BOM_GUST BOM_GUST_PER REUNION_GUST REUNION_GUST_PER USA_SEAHGT USA_SEARAD_NE USA_SEARAD_SE USA_SEARAD_SW USA_SEARAD_NW STORM_SPEED STORM_DIR
1964020S13192 1964 6 SP MM NOT_NAMED 1964-01-20 00:00:00 TS -13.3000 -167.800 main 478 432 O________OO_O_ jtwc_sh SH101964 -13.3000 -167.800 -1 -13.3000 192.200 TC 25 -13.3000 -167.800 1 -13.3000 -167.800 TC 20 11 230
1964020S13192 1964 6 SP MM NOT_NAMED 1964-01-20 03:00:00 TS -13.6507 -168.231 main 432 389 P________PP_P_ SH101964 -13.6477 -168.262 -1 -13.6477 -168.262 TC 25 -13.6597 -168.213 1 -13.6476 -168.187 TC 20 11 230
1964020S13192 1964 6 SP MM NOT_NAMED 1964-01-20 06:00:00 TS -14.0038 -168.658 main 378 339 O________OP_O_ jtwc_sh SH101964 -14.0000 -168.700 -1 -14.0000 191.300 TC 25 -14.0153 -168.632 1 -14.0000 -168.600 TC 20 11 229
1964020S13192 1964 6 SP MM NOT_NAMED 1964-01-20 09:00:00 TS -14.3589 -169.077 main 341 308 P________PP_P_ SH101964 -14.3574 -169.100 -1 -14.3574 -169.100 TC 25 -14.3632 -169.059 1 -14.3575 -169.050 TC 22 11 230
1964020S13192 1964 6 SP MM NOT_NAMED 1964-01-20 12:00:00 TS -14.7000 -169.500 main 308 281 O________OO_O_ jtwc_sh SH101964 -14.7000 -169.500 -1 -14.7000 190.500 TC 25 -14.7000 -169.500 1 -14.7000 -169.500 TC 25 11 232
1964020S13192 1964 6 SP MM NOT_NAMED 1964-01-20 15:00:00 TS -15.0060 -169.944 main 281 257 P________PP_P_ SH101964 -15.0000 -169.958 -1 -15.0000 -169.958 TC 25 -15.0242 -169.952 1 -14.9999 -169.908 TC 27 10 234
1964020S13192 1964 6 SP MM NOT_NAMED 1964-01-20 18:00:00 TS -15.3107 -170.372 main 256 249 O________OP_O_ jtwc_sh SH101964 -15.3000 -170.400 -1 -15.3000 189.600 TC 25 -15.3428 -170.390 1 -15.3000 -170.300 TC 30 10 231
1964020S13192 1964 6 SP MM NOT_NAMED 1964-01-20 21:00:00 TS -15.6481 -170.778 main 251 251 P________PP_P_ SH101964 -15.6425 -170.795 -1 -15.6425 -170.795 TC 25 -15.6649 -170.783 1 -15.6426 -170.737 TC 30 10 226
1964020S13192 1964 6 SP MM NOT_NAMED 1964-01-21 00:00:00 TS -16.0000 -171.100 main 273 273 O________OO_O_ jtwc_sh SH101964 -16.0000 -171.100 -1 -16.0000 188.900 TC 25 -16.0000 -171.100 1 -16.0000 -171.100 TC 30 9 215
1964020S13192 1964 6 SP MM NOT_NAMED 1964-01-21 03:00:00 TS -16.3489 -171.295 main 296 296 P________PP_P_ SH101964 -16.3424 -171.288 -1 -16.3424 -171.288 TC 25 -16.3683 -171.309 1 -16.3424 -171.295 TC 30 8 203
1964020S13192 1964 6 SP MM NOT_NAMED 1964-01-21 06:00:00 TS -16.7124 -171.410 main 335 335 O________OP_O_ jtwc_sh SH101964 -16.7000 -171.400 -1 -16.7000 188.600 TC 25 -16.7495 -171.441 1 -16.7000 -171.400 TC 30 8 195
1964020S13192 1964 6 SP MM NOT_NAMED 1964-01-21 09:00:00 TS -17.1096 -171.513 main 376 376 P________PP_P_ SH101964 -17.1000 -171.508 -1 -17.1000 -171.508 TC 25 -17.1309 -171.527 1 -17.1075 -171.508 TC 30 8 193
1964020S13192 1964 6 SP MM NOT_NAMED 1964-01-21 12:00:00 TS -17.5000 -171.600 main 419 419 O________OO_O_ jtwc_sh SH101964 -17.5000 -171.600 -1 -17.5000 188.400 TC 25 -17.5000 -171.600 1 -17.5000 -171.600 TC 30 8 194
1964020S13192 1964 6 SP MM NOT_NAMED 1964-01-21 15:00:00 TS -17.8452 -171.705 main 450 450 P________PP_P_ SH101964 -17.8650 -171.700 -1 -17.8650 -171.700 TC 25 -17.8434 -171.719 1 -17.8075 -171.700 TC 30 7 196
1964020S13192 1964 6 SP MM NOT_NAMED 1964-01-21 18:00:00 TS -18.1681 -171.807 main 494 494 O________OP_O_ jtwc_sh SH101964 -18.2000 -171.800 -1 -18.2000 188.200 TC 25 -18.1725 -171.830 1 -18.1000 -171.800 TC 30 7 197
1964020S13192 1964 6 SP MM NOT_NAMED 1964-01-21 21:00:00 TS -18.4888 -171.912 main 527 527 P________PP_P_ SH101964 -18.5075 -171.908 -1 -18.5075 -171.908 TC 25 -18.4903 -171.926 1 -18.4500 -171.907 TC 30 7 196
1964020S13192 1964 6 SP MM NOT_NAMED 1964-01-22 00:00:00 TS -18.8000 -172.000 main 560 560 O________OO_O_ jtwc_sh SH101964 -18.8000 -172.000 -1 -18.8000 188.000 TC 25 -18.8000 -172.000 1 -18.8000 -172.000 TC 30 6 193
1964020S13192 1964 6 SP MM NOT_NAMED 1964-01-22 03:00:00 TS -19.1067 -172.061 main 593 593 P________PP_P_ SH101964 -19.1000 -172.065 -1 -19.1000 -172.065 TC 25 -19.1193 -172.051 1 -19.1075 -172.065 TC 30 6 188
1964020S13192 1964 6 SP MM NOT_NAMED 1964-01-22 06:00:00 TS -19.4075 -172.095 main 626 626 O________OP_O_ jtwc_sh SH101964 -19.4000 -172.100 -1 -19.4000 187.900 TC 25 -19.4299 -172.080 1 -19.4000 -172.100 TC 30 6 185
1964020S13192 1964 6 SP MM NOT_NAMED 1964-01-22 09:00:00 TS -19.7139 -172.104 main 660 660 P________PP_P_ SH101964 -19.7075 -172.108 -1 -19.7075 -172.108 TC 25 -19.7256 -172.094 1 -19.7150 -172.108 TC 30 6 0
1964020S13192 1964 6 SP MM NOT_NAMED 1964-01-22 12:00:00 TS -20.0000 -172.100 main 693 693 O________OO_O_ jtwc_sh SH101964 -20.0000 -172.100 -1 -20.0000 187.900 TC 25 -20.0000 -172.100 1 -20.0000 -172.100 TC 30 5 0
1964020S13192 1964 6 SP MM NOT_NAMED 1964-01-22 15:00:00 TS -20.2480 -172.101 main 716 716 P________PP_P_ SH101964 -20.2650 -172.100 -1 -20.2650 -172.100 TC 25 -20.2547 -172.103 1 -20.2075 -172.100 TC 30 5 0
1964020S13192 1964 6 SP MM NOT_NAMED 1964-01-22 18:00:00 TS -20.4719 -172.100 main 749 749 O________OP_O_ jtwc_sh SH101964 -20.5000 -172.100 -1 -20.5000 187.900 TC 25 -20.4875 -172.100 1 -20.4000 -172.100 TC 30 4 177
1964020S13192 1964 6 SP MM NOT_NAMED 1964-01-22 21:00:00 TS -20.6916 -172.099 main 772 772 P________PP_P_ SH101964 -20.7075 -172.100 -1 -20.7075 -172.100 TC 25 -20.7016 -172.097 1 -20.6500 -172.100 TC 30 4 0
1964020S13192 1964 6 SP MM NOT_NAMED 1964-01-23 00:00:00 TS -20.9000 -172.100 main 794 794 O________OO_O_ jtwc_sh SH101964 -20.9000 -172.100 -1 -20.9000 187.900 TC 25 -20.9000 -172.100 1 -20.9000 -172.100 TC 30 4 0
1964020S13192 1964 6 SP MM NOT_NAMED 1964-01-23 03:00:00 TS -21.1068 -172.092 main 816 816 P________PP_P_ SH101964 -21.1075 -172.093 -1 -21.1075 -172.093 TC 25 -21.0974 -172.090 1 -21.1150 -172.093 TC 30 4 177
1964020S13192 1964 6 SP MM NOT_NAMED 1964-01-23 06:00:00 TS -21.2950 -172.098 main 839 839 O________OP_O_ jtwc_sh SH101964 -21.3000 -172.100 -1 -21.3000 187.900 TC 25 -21.2798 -172.090 1 -21.3000 -172.100 TC 30 4 185
1964020S13192 1964 6 SP MM NOT_NAMED 1964-01-23 09:00:00 TS -21.4549 -172.122 main 861 861 P________PP_P_ SH101964 -21.4575 -172.120 -1 -21.4575 -172.120 TC 25 -21.4473 -172.121 1 -21.4575 -172.128 TC 30 3 197
1964020S13192 1964 6 SP MM NOT_NAMED 1964-01-23 12:00:00 TS -21.6000 -172.200 main 872 872 O________OO_O_ jtwc_sh SH101964 -21.6000 -172.200 -1 -21.6000 187.800 TC 25 -21.6000 -172.200 1 -21.6000 -172.200 TC 30 4 216
1964020S13192 1964 6 SP MM NOT_NAMED 1964-01-23 15:00:00 TS -21.7561 -172.357 main 895 895 P________PP_P_ SH101964 -21.7575 -172.377 -1 -21.7575 -172.377 TC 25 -21.7517 -172.354 1 -21.7575 -172.320 TC 30 5 229
1964020S13192 1964 6 SP MM NOT_NAMED 1964-01-23 18:00:00 TS -21.8969 -172.564 main 906 906 O________OP_O_ jtwc_sh SH101964 -21.9000 -172.600 -1 -21.9000 187.400 TC 25 -21.8877 -172.555 1 -21.9000 -172.500 TC 30 5 237
1964020S13192 1964 6 SP MM NOT_NAMED 1964-01-23 21:00:00 TS -22.0125 -172.782 main 917 917 P________PP_P_ SH101964 -22.0150 -172.800 -1 -22.0150 -172.800 TC 25 -22.0048 -172.779 1 -22.0151 -172.750 TC 30 5 243
1964020S13192 1964 6 SP MM NOT_NAMED 1964-01-24 00:00:00 TS -22.1000 -173.000 main 929 929 O________OO_O_ jtwc_sh SH101964 -22.1000 -173.000 -1 -22.1000 187.000 TC 25 -22.1000 -173.000 1 -22.1000 -173.000 TC 30 4 249
1964020S13192 1964 6 SP MM NOT_NAMED 1964-01-24 03:00:00 TS -22.1570 -173.199 main 941 925 P________PP_P_ SH101964 -22.1575 -173.208 -1 -22.1575 -173.208 TC 25 -22.1554 -173.223 1 -22.1574 -173.158 TC 30 4 254
1964020S13192 1964 6 SP MM NOT_NAMED 1964-01-24 06:00:00 TS -22.1982 -173.383 main 925 910 O________OP_O_ jtwc_sh SH101964 -22.2000 -173.400 -1 -22.2000 186.600 TC 25 -22.1926 -173.433 1 -22.2000 -173.300 TC 30 4 258
1964020S13192 1964 6 SP MM NOT_NAMED 1964-01-24 09:00:00 TS -22.2309 -173.586 main 910 902 P________PP_P_ SH101964 -22.2275 -173.602 -1 -22.2275 -173.602 TC 25 -22.2335 -173.601 1 -22.2351 -173.537 TC 30 3 251
1964020S13192 1964 6 SP MM NOT_NAMED 1964-01-24 12:00:00 TS -22.3000 -173.700 main 909 909 O________OO_O_ jtwc_sh SH101964 -22.3000 -173.700 -1 -22.3000 186.300 TC 25 -22.3000 -173.700 1 -22.3000 -173.700 TC 30 2 182
1964020S13192 1964 6 SP MM NOT_NAMED 1964-01-24 15:00:00 TS -22.4714 -173.595 main 932 932 P________PP_P_ SH101964 -22.4926 -173.573 -1 -22.4926 -173.573 TC 25 -22.4654 -173.596 1 -22.4350 -173.638 TC 30 4 146
1964020S13192 1964 6 SP MM NOT_NAMED 1964-01-24 18:00:00 TS -22.6629 -173.434 main 962 962 O________OP_O_ jtwc_sh SH101964 -22.7000 -173.400 -1 -22.7000 186.600 TC 25 -22.6515 -173.438 1 -22.6000 -173.500 TC 30 4 144
1964020S13192 1964 6 SP MM NOT_NAMED 1964-01-24 21:00:00 TS -22.8221 -173.319 main 977 977 P________PP_P_ SH101964 -22.8447 -173.295 -1 -22.8447 -173.295 TC 25 -22.8118 -173.336 1 -22.7872 -173.352 TC 30 2 170
1964020S13192 1964 6 SP MM NOT_NAMED 1964-01-25 00:00:00 TS -22.9000 -173.400 main 977 947 O________OO_O_ jtwc_sh SH101964 -22.9000 -173.400 -1 -22.9000 186.600 TC 25 -22.9000 -173.400 1 -22.9000 -173.400 TC 30 5 267
1964020S13192 1964 6 SP MM NOT_NAMED 1964-01-25 03:00:00 TS -22.8461 -173.844 main 940 883 P________PP_P_ SH101964 -22.8379 -173.868 -1 -22.8379 -173.868 TC 25 -22.8634 -173.779 1 -22.8454 -173.860 TC 30 10 281
1964020S13192 1964 6 SP MM NOT_NAMED 1964-01-25 06:00:00 TS -22.7123 -174.457 main 875 827 O________OP_O_ jtwc_sh SH101964 -22.7000 -174.500 -1 -22.7000 185.500 TC 25 -22.7493 -174.328 1 -22.7000 -174.500 TC 30 11 284
1964020S13192 1964 6 SP MM NOT_NAMED 1964-01-25 09:00:00 TS -22.5680 -175.026 main 827 764 P________PP_P_ SH101964 -22.5647 -175.042 -1 -22.5647 -175.042 TC 25 -22.5853 -174.963 1 -22.5574 -175.057 TC 30 11 286
1964020S13192 1964 6 SP MM NOT_NAMED 1964-01-25 12:00:00 TS -22.4000 -175.600 main 764 702 O________OO_O_ jtwc_sh SH101964 -22.4000 -175.600 -1 -22.4000 184.400 TC 25 -22.4000 -175.600 1 -22.4000 -175.600 TC 30 11 288
1964020S13192 1964 6 SP MM NOT_NAMED 1964-01-25 15:00:00 TS -22.2234 -176.205 main 702 648 P________PP_P_ SH101964 -22.2002 -176.223 -1 -22.2002 -176.223 TC 25 -22.2361 -176.266 1 -22.2573 -176.107 TC 30 11 288
1964020S13192 1964 6 SP MM NOT_NAMED 1964-01-25 18:00:00 TS -22.0396 -176.774 main 641 595 O________OP_O_ jtwc_sh SH101964 -22.0000 -176.800 -1 -22.0000 183.200 TC 25 -22.0583 -176.894 1 -22.1000 -176.600 TC 30 11 289
1964020S13192 1964 6 SP MM NOT_NAMED 1964-01-25 21:00:00 TS -21.8672 -177.313 main 595 558 P________PP_P_ SH101964 -21.8424 -177.335 -1 -21.8424 -177.335 TC 25 -21.8761 -177.375 1 -21.9078 -177.205 TC 30 8 294
1964020S13192 1964 6 SP MM NOT_NAMED 1964-01-26 00:00:00 TS -21.7000 -177.600 main 558 550 O________OO_O_ jtwc_sh SH101964 -21.7000 -177.600 -1 -21.7000 182.400 TC 25 -21.7000 -177.600 1 -21.7000 -177.600 TC 30 4 336
1964020S13192 1964 6 SP MM NOT_NAMED 1964-01-26 03:00:00 TS -21.5245 -177.476 main 550 550 P________PP_P_ SH101964 -21.5498 -177.442 -1 -21.5498 -177.442 TC 25 -21.5141 -177.447 1 -21.4844 -177.572 TC 30 6 56
1964020S13192 1964 6 SP MM NOT_NAMED 1964-01-26 06:00:00 TS -21.3601 -177.060 main 573 573 O________OP_O_ jtwc_sh SH101964 -21.4000 -177.000 -1 -21.4000 183.000 TC 25 -21.3402 -177.040 1 -21.3000 -177.200 TC 30 10 70
1964020S13192 1964 6 SP MM NOT_NAMED 1964-01-26 09:00:00 TS -21.2055 -176.511 main 610 610 P________PP_P_ SH101964 -21.2277 -176.480 -1 -21.2277 -176.480 TC 25 -21.1960 -176.488 1 -21.1706 -176.595 TC 30 11 76
1964020S13192 1964 6 SP MM NOT_NAMED 1964-01-26 12:00:00 TS -21.1000 -175.900 main 652 652 O________OO_O_ jtwc_sh SH101964 -21.1000 -175.900 -1 -21.1000 184.100 TC 25 -21.1000 -175.900 1 -21.1000 -175.900 TC 30 11 83
1964020S13192 1964 6 SP MM NOT_NAMED 1964-01-26 15:00:00 TS -21.0698 -175.394 main 689 689 P________PP_P_ SH101964 -21.0699 -175.385 -1 -21.0699 -175.385 TC 25 -21.0624 -175.436 1 -21.0772 -175.370 TC 30 9 90
1964020S13192 1964 6 SP MM NOT_NAMED 1964-01-26 18:00:00 TS -21.0937 -174.914 main 728 728 O________OP_O_ jtwc_sh SH101964 -21.1000 -174.900 -1 -21.1000 185.100 TC 25 -21.0748 -174.958 1 -21.1000 -174.900 TC 30 9 94
1964020S13192 1964 6 SP MM NOT_NAMED 1964-01-26 21:00:00 TS -21.1323 -174.451 main 760 760 P________PP_P_ SH101964 -21.1348 -174.442 -1 -21.1348 -174.442 TC 25 -21.1249 -174.476 1 -21.1348 -174.442 TC 30 9 97
1964020S13192 1964 6 SP MM NOT_NAMED 1964-01-27 00:00:00 TS -21.2000 -174.000 main 808 808 O________OO_O_ jtwc_sh SH101964 -21.2000 -174.000 -1 -21.2000 186.000 TC 25 -21.2000 -174.000 1 -21.2000 -174.000 TC 30 9 100
1964020S13192 1964 6 SP MM NOT_NAMED 1964-01-27 03:00:00 TS -21.2827 -173.546 main 844 841 P________PP_P_ SH101964 -21.2924 -173.550 -1 -21.2924 -173.550 TC 25 -21.2538 -173.534 1 -21.2924 -173.550 TC 27 9 102
1964020S13192 1964 6 SP MM NOT_NAMED 1964-01-27 06:00:00 TS -21.3830 -173.094 main 852 850 O________OP_O_ jtwc_sh SH101964 -21.4000 -173.100 -1 -21.4000 186.900 TC 25 -21.3321 -173.077 1 -21.4000 -173.100 TC 25 9 103
1964020S13192 1964 6 SP MM NOT_NAMED 1964-01-27 09:00:00 TS -21.4748 -172.640 main 861 861 P________PP_P_ SH101964 -21.4849 -172.642 -1 -21.4849 -172.642 TC 25 -21.4444 -172.631 1 -21.4849 -172.642 TC 22 9 105
1964020S13192 1964 6 SP MM NOT_NAMED 1964-01-27 12:00:00 TS -21.6000 -172.200 main 872 872 O________OO_O_ jtwc_sh SH101964 -21.6000 -172.200 -1 -21.6000 187.800 TC 25 -21.6000 -172.200 1 -21.6000 -172.200 TC 20 8 111
1964020S13192 1964 6 SP MM NOT_NAMED 1964-01-27 15:00:00 TS -21.7785 -171.791 main 896 896 P________PP_P_ SH101964 -21.7698 -171.792 -1 -21.7698 -171.792 TC 25 -21.8044 -171.786 1 -21.7698 -171.792 TC 20 9 119
1964020S13192 1964 6 SP MM NOT_NAMED 1964-01-27 18:00:00 TS -22.0120 -171.396 main 921 921 O________OP_O_ jtwc_sh SH101964 -22.0000 -171.400 -1 -22.0000 188.600 TC 25 -22.0481 -171.384 1 -22.0000 -171.400 TC 20 9 125
1964020S13192 1964 6 SP MM NOT_NAMED 1964-01-27 21:00:00 TS -22.2934 -171.000 main 959 959 P________PP_P_ SH101964 -22.2852 -171.003 -1 -22.2852 -171.003 TC 25 -22.3178 -170.990 1 -22.2852 -171.003 TC 20 9 129
1964020S13192 1964 6 SP MM NOT_NAMED 1964-01-28 00:00:00 TS -22.6000 -170.600 main 998 O________OO_O_ jtwc_sh SH101964 -22.6000 -170.600 -1 -22.6000 189.400 TC 25 -22.6000 -170.600 1 -22.6000 -170.600 TC 20 10 130

デジタル台風データ・検索

IBTrACS Databaseについて

本データベースは、米国NOAAが公開する1842年以降の世界の熱帯低気圧のベストトラックデータアーカイブInternational Best Track Archive for Climate Stewardship (IBTrACS)を、ウェブで閲覧しやすい形式に変換したものです。

最終更新日:2021-10-21